Norse Mersey — IBEN — position and weather

sailwx.info

Track history (hours):
 
Tides and Currents Weather Stations Pressure Air Temp Water Temp Dewpoint Dewpoint Depression Visibility Wind Speed Wind Dir Waves Ship Positions

Norse Mersey

Operator: Norse Merchant Ferries

Last reported at 2015-May-04 20:33 UTC. Time now 2015-May-04 21:08 UTC.
Position N 40°29' E 014°43'.

Length 175 m; draft 5.4 m.

Type: Passenger vessel. MMSI: 247026000.

Date/timePositionNaut miles runAvg speedWind from/ knotsBaromVisibWave heightAir tempDewpointWater temp
2015-May-04 20:33N 40°29' E 014°43'2 0.1
2015-May-03 09:33N 40°31' E 014°43'  
2015-Apr-30 14:28N 40°29' E 014°44'3015.4
2015-Apr-30 12:33N 40°00' E 014°50'  
2015-Apr-27 11:33N 36°03' E 014°40'11 1.0
2015-Apr-27 00:04N 35°54' E 014°31'611.4
2015-Apr-26 23:33N 35°58' E 014°36'1413.4
2015-Apr-26 22:32N 36°10' E 014°46'1313.5
2015-Apr-26 21:33N 36°20' E 014°56'226 9.0
2015-Apr-25 20:32N 40°06' E 014°46'1515.7
2015-Apr-25 19:33N 40°21' E 014°43'15 1.6
2015-Apr-25 10:33N 40°35' E 014°43'3115.7
2015-Apr-25 08:33N 40°04' E 014°47'  
Track history (hours):
 
Tides and Currents Weather Stations Pressure Air Temp Water Temp Dewpoint Dewpoint Depression Visibility Wind Speed Wind Dir Waves Ship Positions

Norse Mersey

Operator: Norse Merchant Ferries

Last reported at 2015-May-04 20:33 UTC. Time now 2015-May-04 21:08 UTC.
Position N 40°29' E 014°43'.

Length 175 m; draft 5.4 m.

Type: Passenger vessel. MMSI: 247026000.

Date/timePositionNaut miles runAvg speedWind from/ knotsBaromVisibWave heightAir tempDewpointWater temp
2015-May-04 20:33N 40°29' E 014°43'2 0.1
2015-May-03 09:33N 40°31' E 014°43'  
2015-Apr-30 14:28N 40°29' E 014°44'3015.4
2015-Apr-30 12:33N 40°00' E 014°50'  
2015-Apr-27 11:33N 36°03' E 014°40'11 1.0
2015-Apr-27 00:04N 35°54' E 014°31'611.4
2015-Apr-26 23:33N 35°58' E 014°36'1413.4
2015-Apr-26 22:32N 36°10' E 014°46'1313.5
2015-Apr-26 21:33N 36°20' E 014°56'226 9.0
2015-Apr-25 20:32N 40°06' E 014°46'1515.7
2015-Apr-25 19:33N 40°21' E 014°43'15 1.6
2015-Apr-25 10:33N 40°35' E 014°43'3115.7
2015-Apr-25 08:33N 40°04' E 014°47'  

Dump ship's entire track history